createdAt,value
2023-04-30T00:01:58.910Z,100030.67
2023-04-30T00:04:28.031Z,100033.27
2023-04-30T00:06:56.574Z,100030.70
2023-04-30T00:09:24.480Z,100029.17
2023-04-30T00:11:52.563Z,100032.64
2023-04-30T00:14:20.911Z,100035.06
2023-04-30T00:16:49.090Z,100035.95
2023-04-30T00:19:17.216Z,100034.04
2023-04-30T00:21:45.148Z,100035.94
2023-04-30T00:24:13.059Z,100038.35
2023-04-30T00:26:42.774Z,100035.89
2023-04-30T00:29:11.198Z,100036.20
2023-04-30T00:31:39.589Z,100036.52
2023-04-30T00:34:07.702Z,100037.72
2023-04-30T00:39:33.637Z,100041.33
2023-04-30T00:42:02.857Z,100041.84
2023-04-30T00:44:30.897Z,100040.61
2023-04-30T00:46:58.853Z,100043.56
2023-04-30T00:49:26.960Z,100044.93
2023-04-30T00:51:55.045Z,100045.27
2023-04-30T00:54:24.426Z,100046.83
2023-04-30T00:56:52.822Z,100046.48
2023-04-30T00:59:21.293Z,100046.83
2023-04-30T01:01:49.930Z,100043.70
2023-04-30T01:04:18.459Z,100044.40
2023-04-30T01:06:46.748Z,100043.86
2023-04-30T01:09:14.971Z,100043.00
2023-04-30T01:11:55.079Z,100045.77
2023-04-30T01:14:50.774Z,100045.62
2023-04-30T01:17:41.940Z,100049.11
2023-04-30T01:20:11.451Z,100046.18
2023-04-30T01:22:48.588Z,100050.02
2023-04-30T01:25:38.058Z,100051.92
2023-04-30T01:28:16.898Z,100052.98
2023-04-30T01:30:45.727Z,100054.76
2023-04-30T01:36:19.425Z,100052.36
2023-04-30T01:39:10.177Z,100055.67
2023-04-30T01:41:56.677Z,100055.16
2023-04-30T01:44:29.793Z,100055.66
2023-04-30T01:47:19.185Z,100055.13
2023-04-30T01:50:11.405Z,100056.88
2023-04-30T01:52:52.727Z,100060.51
2023-04-30T01:55:52.641Z,100058.60
2023-04-30T01:58:23.821Z,100062.58
2023-04-30T02:00:52.225Z,100065.38
2023-04-30T02:03:20.506Z,100068.14
2023-04-30T02:05:48.896Z,100069.19
2023-04-30T02:08:17.528Z,100073.52
2023-04-30T02:10:45.691Z,100075.93
2023-04-30T02:13:13.618Z,100075.91
2023-04-30T02:15:41.680Z,100078.33
2023-04-30T02:18:09.693Z,100076.59
2023-04-30T02:20:38.570Z,100081.77
2023-04-30T02:23:09.862Z,100079.13
2023-04-30T02:25:38.706Z,100080.98
2023-04-30T02:28:06.672Z,100084.41
2023-04-30T02:30:34.504Z,100083.33
2023-04-30T02:33:03.697Z,100087.65
2023-04-30T02:35:31.732Z,100087.45
2023-04-30T02:37:59.789Z,100085.66
2023-04-30T02:40:28.524Z,100092.64
2023-04-30T02:42:56.923Z,100097.55
2023-04-30T02:45:25.053Z,100099.30
2023-04-30T02:47:53.145Z,100101.05
2023-04-30T02:50:21.547Z,100105.77
2023-04-30T02:52:49.825Z,100111.22
2023-04-30T02:55:17.819Z,100111.08
2023-04-30T02:57:45.729Z,100118.34
2023-04-30T03:00:14.675Z,100120.45
2023-04-30T03:02:43.754Z,100122.38
2023-04-30T03:05:11.863Z,100126.36
2023-04-30T03:07:40.083Z,100133.67
2023-04-30T03:10:09.155Z,100131.44
2023-04-30T03:12:37.142Z,100139.25
2023-04-30T03:15:05.752Z,100142.77
2023-04-30T03:17:33.883Z,100146.92
2023-04-30T03:20:01.972Z,100149.38
2023-04-30T03:22:30.751Z,100152.36
2023-04-30T03:24:58.713Z,100152.05
2023-04-30T03:27:26.648Z,100156.56
2023-04-30T03:29:54.961Z,100158.84
2023-04-30T03:32:23.942Z,100157.65
2023-04-30T03:34:52.110Z,100161.67
2023-04-30T03:37:20.123Z,100167.91
2023-04-30T03:39:48.052Z,100182.52
2023-04-30T03:42:16.999Z,100183.95
2023-04-30T03:44:45.024Z,100189.89
2023-04-30T03:47:12.976Z,100192.85
2023-04-30T03:49:41.403Z,100200.67
2023-04-30T03:52:09.430Z,100207.09
2023-04-30T03:54:37.728Z,100212.80
2023-04-30T03:57:10.792Z,100218.18
2023-04-30T03:59:38.733Z,100222.67
2023-04-30T04:02:57.343Z,100229.59
2023-04-30T04:05:26.560Z,100238.41
2023-04-30T04:07:55.102Z,100245.50
2023-04-30T04:10:23.499Z,100251.54
2023-04-30T04:12:51.462Z,100257.41
2023-04-30T04:15:19.580Z,100262.59
2023-04-30T04:17:47.592Z,100264.83
2023-04-30T04:20:16.850Z,100270.19
2023-04-30T04:22:45.420Z,100273.64
2023-04-30T04:25:39.423Z,100277.78
2023-04-30T04:28:07.963Z,100284.52
2023-04-30T04:34:38.989Z,100294.19
2023-04-30T04:37:07.179Z,100296.91
2023-04-30T04:39:36.719Z,100301.06
2023-04-30T04:42:05.172Z,100305.04
2023-04-30T04:44:33.476Z,100305.27
2023-04-30T04:47:03.550Z,100313.19
2023-04-30T04:49:32.162Z,100312.17
2023-04-30T04:52:00.138Z,100315.30
2023-04-30T04:54:28.506Z,100320.84
2023-04-30T04:56:56.700Z,100318.41
2023-04-30T04:59:26.927Z,100323.80
2023-04-30T05:01:56.626Z,100332.11
2023-04-30T05:04:24.897Z,100334.72
2023-04-30T05:06:54.464Z,100334.90
2023-04-30T05:09:22.648Z,100340.95
2023-04-30T05:11:51.052Z,100340.95
2023-04-30T05:14:18.958Z,100346.66
2023-04-30T05:16:47.116Z,100348.04
2023-04-30T05:19:15.192Z,100353.08
2023-04-30T05:21:43.342Z,100357.58
2023-04-30T05:24:17.967Z,100360.19
2023-04-30T05:26:46.263Z,100363.84
2023-04-30T05:29:14.320Z,100368.70
2023-04-30T05:31:42.421Z,100369.92
2023-04-30T05:34:10.453Z,100369.75
2023-04-30T05:36:38.389Z,100379.63
2023-04-30T05:39:06.428Z,100381.53
2023-04-30T05:41:34.371Z,100388.46
2023-04-30T05:44:02.944Z,100389.84
2023-04-30T05:46:31.181Z,100391.23
2023-04-30T05:48:59.112Z,100393.48
2023-04-30T05:51:28.035Z,100392.96
2023-04-30T05:53:57.547Z,100399.55
2023-04-30T05:56:26.592Z,100408.54
2023-04-30T05:58:54.563Z,100405.08
2023-04-30T06:01:23.911Z,100407.14
2023-04-30T06:03:52.398Z,100409.22
2023-04-30T06:06:21.180Z,100415.23
2023-04-30T06:08:49.171Z,100416.45
2023-04-30T06:11:17.196Z,100419.20
2023-04-30T06:13:47.833Z,100418.15
2023-04-30T06:16:16.353Z,100424.02
2023-04-30T06:18:44.724Z,100426.45
2023-04-30T06:21:12.750Z,100429.96
2023-04-30T06:23:40.757Z,100431.23
2023-04-30T06:26:08.761Z,100430.34
2023-04-30T06:28:36.691Z,100430.73
2023-04-30T06:31:04.791Z,100425.18
2023-04-30T06:33:32.758Z,100424.63
2023-04-30T06:36:00.680Z,100426.86
2023-04-30T06:38:29.174Z,100418.80
2023-04-30T06:40:57.233Z,100416.07
2023-04-30T06:43:25.272Z,100418.00
2023-04-30T06:45:53.156Z,100415.41
2023-04-30T06:48:21.069Z,100419.96
2023-04-30T06:50:49.103Z,100419.42
2023-04-30T06:53:17.020Z,100421.95
2023-04-30T06:55:46.850Z,100418.08
2023-04-30T06:58:15.798Z,100426.63
2023-04-30T07:00:43.830Z,100417.91
2023-04-30T07:03:11.907Z,100425.95
2023-04-30T07:05:40.080Z,100423.38
2023-04-30T07:08:08.010Z,100426.18
2023-04-30T07:10:36.262Z,100426.75
2023-04-30T07:13:04.293Z,100425.68
2023-04-30T07:15:32.356Z,100429.88
2023-04-30T07:18:00.476Z,100430.09
2023-04-30T07:20:28.549Z,100428.16
2023-04-30T07:22:56.981Z,100435.03
2023-04-30T07:25:24.923Z,100436.10
2023-04-30T07:27:56.476Z,100434.33
2023-04-30T07:30:25.480Z,100440.23
2023-04-30T07:32:53.451Z,100432.74
2023-04-30T07:35:21.442Z,100441.13
2023-04-30T07:37:49.482Z,100445.21
2023-04-30T07:40:25.401Z,100456.16
2023-04-30T07:43:03.364Z,100459.77
2023-04-30T07:45:31.987Z,100453.52
2023-04-30T07:48:00.028Z,100458.92
2023-04-30T07:50:29.904Z,100462.30
2023-04-30T07:52:58.025Z,100469.36
2023-04-30T07:55:26.155Z,100474.56
2023-04-30T07:57:54.135Z,100467.99
2023-04-30T08:00:22.239Z,100466.16
2023-04-30T08:02:50.882Z,100464.48
2023-04-30T08:05:19.191Z,100477.86
2023-04-30T08:07:47.238Z,100480.10
2023-04-30T08:10:15.795Z,100470.99
2023-04-30T08:12:44.944Z,100477.08
2023-04-30T08:15:12.844Z,100475.56
2023-04-30T08:17:40.994Z,100477.77
2023-04-30T08:20:09.590Z,100481.24
2023-04-30T08:22:37.672Z,100482.39
2023-04-30T08:25:07.006Z,100481.75
2023-04-30T08:27:34.937Z,100482.52
2023-04-30T08:30:09.914Z,100488.25
2023-04-30T08:32:46.946Z,100488.66
2023-04-30T08:35:21.435Z,100494.77
2023-04-30T08:37:50.300Z,100491.83
2023-04-30T08:40:19.279Z,100498.01
2023-04-30T08:43:00.391Z,100501.75
2023-04-30T08:45:28.578Z,100502.07
2023-04-30T08:47:59.840Z,100505.59
2023-04-30T08:50:29.410Z,100503.77
2023-04-30T08:53:01.823Z,100508.73
2023-04-30T08:55:30.169Z,100508.02
2023-04-30T08:57:58.225Z,100506.02
2023-04-30T09:00:28.659Z,100503.92
2023-04-30T09:02:56.811Z,100505.88
2023-04-30T09:05:24.933Z,100509.63
2023-04-30T09:08:02.995Z,100515.36
2023-04-30T09:10:36.268Z,100521.35
2023-04-30T09:13:09.382Z,100525.13
2023-04-30T09:15:41.616Z,100529.00
2023-04-30T09:18:14.685Z,100527.28
2023-04-30T09:21:01.924Z,100522.54
2023-04-30T09:23:30.903Z,100525.90
2023-04-30T09:25:58.754Z,100531.47
2023-04-30T09:28:29.152Z,100539.92
2023-04-30T09:30:58.178Z,100536.20
2023-04-30T09:33:26.175Z,100534.33
2023-04-30T09:35:54.224Z,100540.70
2023-04-30T09:38:33.211Z,100543.12
2023-04-30T09:41:02.148Z,100547.67
2023-04-30T09:43:31.006Z,100540.73
2023-04-30T09:46:00.725Z,100539.75
2023-04-30T09:48:29.171Z,100544.45
2023-04-30T09:50:57.738Z,100543.49
2023-04-30T09:53:26.789Z,100543.90
2023-04-30T09:55:59.205Z,100544.27
2023-04-30T09:58:29.637Z,100537.23
2023-04-30T10:01:01.134Z,100544.25
2023-04-30T10:03:31.619Z,100543.13
2023-04-30T10:06:01.086Z,100537.66
2023-04-30T10:08:47.744Z,100539.04
2023-04-30T10:11:23.698Z,100535.94
2023-04-30T10:13:53.663Z,100539.30
2023-04-30T10:16:28.674Z,100529.02
2023-04-30T10:19:00.953Z,100535.73
2023-04-30T10:21:30.002Z,100533.66
2023-04-30T10:23:59.282Z,100539.77
2023-04-30T10:26:29.710Z,100544.56
2023-04-30T10:29:01.462Z,100526.46
2023-04-30T10:31:30.825Z,100534.89
2023-04-30T10:34:05.015Z,100534.84
2023-04-30T10:36:38.915Z,100534.01
2023-04-30T10:39:07.500Z,100533.94
2023-04-30T10:41:35.709Z,100534.20
2023-04-30T10:44:05.591Z,100538.39
2023-04-30T10:46:37.011Z,100538.36
2023-04-30T10:49:05.500Z,100532.62
2023-04-30T10:51:58.666Z,100533.08
2023-04-30T10:54:36.967Z,100527.20
2023-04-30T10:57:17.920Z,100529.25
